Time;durP1;ratioP1;P1;durP2;ratioP2;P2;SDS_P1;SDS_P2;PMS_P1;PMS_P2;Temp;Humidity;BMP_temperature;BMP_pressure;BME280_temperature;BME280_humidity;BME280_pressure;Samples;Min_cycle;Max_cycle;Signal;HPM_P1;HPM_P2
2023/02/24 00:01:59;;;;;;;68.82;43.13;;;;;;;4.37;100.00;95240.16;5117457;28;20051;-69
2023/02/24 00:04:26;;;;;;;59.30;38.08;;;;;;;4.41;100.00;95239.78;5094946;28;20015;-68
2023/02/24 00:06:52;;;;;;;46.63;27.58;;;;;;;4.66;100.00;95239.72;5118493;28;20027;-69
2023/02/24 00:09:25;;;;;;;47.08;30.35;;;;;;;4.57;100.00;95239.47;5115724;28;20034;-69
2023/02/24 00:11:54;;;;;;;48.40;28.13;;;;;;;4.51;100.00;95242.53;5117242;28;20027;-68
2023/02/24 00:14:20;;;;;;;41.08;21.52;;;;;;;4.59;100.00;95245.41;5116774;28;20367;-69
2023/02/24 00:16:46;;;;;;;53.50;29.10;;;;;;;4.62;100.00;95239.09;5115023;28;20073;-69
2023/02/24 00:19:15;;;;;;;45.65;28.48;;;;;;;4.59;100.00;95242.78;5117257;28;20667;-60
2023/02/24 00:21:41;;;;;;;43.70;27.98;;;;;;;4.51;100.00;95242.53;5119849;27;20537;-60
2023/02/24 00:24:07;;;;;;;44.38;26.90;;;;;;;4.48;100.00;95237.53;5120642;27;20027;-60
2023/02/24 00:26:33;;;;;;;47.55;27.13;;;;;;;4.43;100.00;95232.69;5119834;27;20034;-60
2023/02/24 00:29:02;;;;;;;44.63;26.45;;;;;;;4.38;100.00;95229.59;5121552;27;20050;-60
2023/02/24 00:31:30;;;;;;;47.83;25.10;;;;;;;4.33;100.00;95233.50;5121200;27;20024;-60
2023/02/24 00:33:58;;;;;;;37.72;22.83;;;;;;;4.31;100.00;95225.78;5119661;27;20033;-60
2023/02/24 00:36:24;;;;;;;37.47;23.73;;;;;;;4.29;100.00;95232.91;5123255;27;20420;-62
2023/02/24 00:39:00;;;;;;;44.72;26.95;;;;;;;4.34;100.00;95230.78;5120063;27;20049;-70
2023/02/24 00:41:30;;;;;;;41.80;27.13;;;;;;;4.36;100.00;95228.88;5117719;27;20023;-69
2023/02/24 00:44:05;;;;;;;48.15;31.83;;;;;;;4.34;100.00;95225.56;5121032;27;20028;-69
2023/02/24 00:46:34;;;;;;;42.70;26.90;;;;;;;4.37;100.00;95220.09;5119824;27;20027;-69
2023/02/24 00:49:04;;;;;;;42.63;25.90;;;;;;;4.38;100.00;95213.94;5118849;27;20030;-69
2023/02/24 00:51:34;;;;;;;40.30;26.77;;;;;;;4.33;100.00;95212.66;5118199;27;20019;-69
2023/02/24 00:54:00;;;;;;;40.65;25.25;;;;;;;4.29;100.00;95212.03;5119710;27;20064;-61
2023/02/24 00:56:27;;;;;;;43.72;27.65;;;;;;;4.25;100.00;95201.00;5120858;27;20020;-62
2023/02/24 00:58:54;;;;;;;38.83;25.30;;;;;;;4.27;100.00;95193.09;5120280;27;20023;-69
2023/02/24 01:01:22;;;;;;;37.83;25.20;;;;;;;4.25;100.00;95201.00;5119954;27;20030;-68
2023/02/24 01:03:50;;;;;;;37.22;24.20;;;;;;;4.21;100.00;95202.19;5123780;27;20065;-68
2023/02/24 01:06:20;;;;;;;40.10;23.20;;;;;;;4.30;100.00;95198.88;5101472;27;20051;-68
2023/02/24 01:08:48;;;;;;;41.92;22.40;;;;;;;4.24;100.00;95206.34;5118483;27;20038;-68
2023/02/24 01:14:09;;;;;;;32.65;23.83;;;;;;;4.16;100.00;95201.72;5118037;27;20035;-62
2023/02/24 01:16:35;;;;;;;30.60;20.58;;;;;;;4.12;100.00;95202.88;5119697;27;20382;-61
2023/02/24 01:19:01;;;;;;;34.25;20.60;;;;;;;4.10;100.00;95204.78;5117232;27;20076;-61
2023/02/24 01:21:26;;;;;;;24.58;15.63;;;;;;;4.37;100.00;95203.66;5120269;27;20114;-61
2023/02/24 01:23:52;;;;;;;25.48;16.20;;;;;;;4.53;100.00;95204.16;5116312;27;20070;-60
2023/02/24 01:26:19;;;;;;;38.15;18.27;;;;;;;4.36;100.00;95191.56;5120283;27;20015;-61
2023/02/24 01:28:47;;;;;;;32.53;17.80;;;;;;;4.34;100.00;95194.28;5099662;28;20127;-61
2023/02/24 01:31:19;;;;;;;27.55;17.00;;;;;;;4.35;100.00;95189.91;5118124;27;20138;-64
2023/02/24 01:33:46;;;;;;;24.40;16.38;;;;;;;4.32;100.00;95177.13;5119938;27;20023;-61
2023/02/24 01:36:18;;;;;;;25.40;16.60;;;;;;;4.28;100.00;95181.72;5119223;27;20563;-60
2023/02/24 01:38:44;;;;;;;28.00;16.88;;;;;;;4.24;100.00;95178.50;5118561;27;20035;-60
2023/02/24 01:41:16;;;;;;;25.90;16.63;;;;;;;4.21;100.00;95181.34;5118169;27;20035;-61
2023/02/24 01:44:00;;;;;;;30.15;16.33;;;;;;;4.20;100.00;95174.47;5120861;27;20133;-60
2023/02/24 01:46:40;;;;;;;28.60;16.25;;;;;;;4.16;100.00;95165.22;5118837;27;20408;-61
2023/02/24 01:49:11;;;;;;;25.48;15.95;;;;;;;4.15;100.00;95174.81;5117795;27;20063;-60
2023/02/24 01:51:41;;;;;;;22.30;16.20;;;;;;;4.13;100.00;95174.09;5117022;27;20023;-60
2023/02/24 01:54:10;;;;;;;21.65;16.10;;;;;;;4.14;100.00;95177.56;5116183;27;20026;-61
2023/02/24 01:56:35;;;;;;;26.42;16.60;;;;;;;4.11;100.00;95170.78;5117750;27;20114;-69
2023/02/24 01:59:02;;;;;;;25.30;17.15;;;;;;;4.12;100.00;95158.59;5117589;27;20572;-69
2023/02/24 02:01:28;;;;;;;24.80;17.50;;;;;;;4.05;100.00;95163.44;5120397;27;20053;-69
2023/02/24 02:04:02;;;;;;;23.67;16.45;;;;;;;4.00;100.00;95161.16;5118896;27;20512;-68
2023/02/24 02:06:29;;;;;;;23.63;15.38;;;;;;;4.00;100.00;95155.97;5118709;27;20030;-70
2023/02/24 02:08:56;;;;;;;22.42;15.27;;;;;;;4.01;100.00;95152.41;5120964;27;20024;-69
2023/02/24 02:11:21;;;;;;;23.80;15.63;;;;;;;3.93;100.00;95149.56;5101330;27;20015;-60
2023/02/24 02:13:49;;;;;;;26.10;16.40;;;;;;;3.85;100.00;95154.47;5116579;27;20027;-60
2023/02/24 02:16:42;;;;;;;27.27;15.55;;;;;;;3.80;100.00;95148.78;5118829;27;20027;-60
2023/02/24 02:19:36;;;;;;;29.08;15.35;;;;;;;3.77;100.00;95149.03;5115868;27;20116;-61
2023/02/24 02:22:31;;;;;;;23.63;16.17;;;;;;;3.75;100.00;95135.28;5117407;27;20118;-61
2023/02/24 02:25:12;;;;;;;23.38;16.33;;;;;;;3.66;100.00;95135.03;5118830;27;20040;-61
2023/02/24 02:28:02;;;;;;;21.08;14.55;;;;;;;3.58;100.00;95151.22;5118218;27;20280;-61
2023/02/24 02:30:58;;;;;;;19.33;14.90;;;;;;;3.52;100.00;95149.03;5100468;27;20049;-64
2023/02/24 02:33:38;;;;;;;21.38;14.55;;;;;;;3.48;100.00;95146.78;5114436;27;20016;-71
2023/02/24 02:36:41;;;;;;;25.35;15.18;;;;;;;3.50;100.00;95152.72;5117892;27;20459;-69
2023/02/24 02:39:33;;;;;;;22.10;13.30;;;;;;;3.51;100.00;95141.34;5115988;27;20465;-68
2023/02/24 02:42:19;;;;;;;21.25;13.32;;;;;;;3.44;100.00;95141.81;5119175;27;20019;-68
2023/02/24 02:44:54;;;;;;;23.42;13.30;;;;;;;3.40;100.00;95142.13;5114727;27;20019;-68
2023/02/24 02:47:21;;;;;;;22.42;14.27;;;;;;;3.35;100.00;95139.88;5119061;27;20030;-68
2023/02/24 02:49:54;;;;;;;16.52;13.63;;;;;;;3.30;100.00;95134.97;5117695;27;20026;-69
2023/02/24 02:52:38;;;;;;;26.08;13.20;;;;;;;3.28;100.00;95134.25;5116421;27;20016;-62
2023/02/24 02:55:15;;;;;;;20.85;13.75;;;;;;;3.25;100.00;95125.88;5116920;27;20447;-60
2023/02/24 02:57:47;;;;;;;18.13;12.63;;;;;;;3.26;100.00;95124.94;5115547;27;20024;-60
2023/02/24 03:00:20;;;;;;;20.42;11.95;;;;;;;3.28;100.00;95125.66;5116026;27;20452;-60
2023/02/24 03:02:50;;;;;;;16.60;12.80;;;;;;;3.25;100.00;95125.88;5118202;27;20112;-60
2023/02/24 03:05:20;;;;;;;27.85;14.93;;;;;;;3.24;100.00;95129.41;5116491;27;20127;-60
2023/02/24 03:07:50;;;;;;;23.98;13.75;;;;;;;3.23;100.00;95131.16;5115893;27;20033;-60
2023/02/24 03:10:26;;;;;;;22.23;12.85;;;;;;;3.22;100.00;95124.31;5117986;27;20092;-60
2023/02/24 03:12:54;;;;;;;24.35;13.38;;;;;;;3.24;100.00;95129.41;5118614;27;20027;-70
2023/02/24 03:15:22;;;;;;;18.33;13.38;;;;;;;3.27;100.00;95124.00;5115760;27;20408;-71
2023/02/24 03:17:55;;;;;;;17.60;12.63;;;;;;;3.25;100.00;95123.28;5118371;27;20081;-71
2023/02/24 03:20:32;;;;;;;17.50;13.75;;;;;;;3.19;100.00;95128.91;5097314;27;20033;-71
2023/02/24 03:23:04;;;;;;;21.02;12.60;;;;;;;3.14;100.00;95116.25;5115002;27;20031;-70
2023/02/24 03:25:43;;;;;;;25.35;14.43;;;;;;;3.11;100.00;95117.28;5114866;27;20024;-70
2023/02/24 03:28:36;;;;;;;19.42;13.38;;;;;;;3.07;100.00;95123.66;5115536;27;20072;-71
2023/02/24 03:31:26;;;;;;;20.98;13.73;;;;;;;3.06;100.00;95129.78;5116154;27;20030;-71
2023/02/24 03:33:59;;;;;;;26.02;13.57;;;;;;;3.12;100.00;95124.13;5114251;27;20030;-67
2023/02/24 03:36:26;;;;;;;22.05;14.10;;;;;;;3.08;100.00;95125.31;5117838;27;20047;-67
2023/02/24 03:38:52;;;;;;;18.05;13.38;;;;;;;3.01;100.00;95126.69;5117085;27;20098;-67
2023/02/24 03:41:17;;;;;;;21.02;14.35;;;;;;;2.96;100.00;95133.97;5117506;27;20054;-67
2023/02/24 03:43:46;;;;;;;19.88;14.07;;;;;;;2.93;100.00;95129.84;5119473;27;20023;-67
2023/02/24 03:46:14;;;;;;;18.73;14.27;;;;;;;2.92;100.00;95132.53;5120949;27;20028;-67
2023/02/24 03:48:45;;;;;;;20.23;13.02;;;;;;;2.83;100.00;95134.84;5098279;27;20500;-69
2023/02/24 03:51:19;;;;;;;24.67;13.63;;;;;;;2.82;100.00;95143.59;5115702;28;20019;-60
2023/02/24 03:54:00;;;;;;;23.83;15.02;;;;;;;2.78;100.00;95142.16;5098049;28;20073;-71
2023/02/24 03:57:11;;;;;;;23.15;13.98;;;;;;;2.71;100.00;95130.50;5113581;28;20043;-72
2023/02/24 04:03:29;;;;;;;22.50;13.50;;;;;;;2.57;100.00;95124.50;5105102;28;20142;-71
2023/02/24 04:06:10;;;;;;;18.48;13.25;;;;;;;2.56;100.00;95112.47;5115416;28;20042;-71
2023/02/24 04:09:13;;;;;;;23.60;14.35;;;;;;;2.55;100.00;95112.56;5117005;28;20079;-62
2023/02/24 04:11:48;;;;;;;24.10;13.80;;;;;;;2.57;100.00;95110.69;5116154;28;20031;-71
2023/02/24 04:14:54;;;;;;;15.30;13.02;;;;;;;2.56;100.00;95106.41;5115294;28;20448;-71
2023/02/24 04:17:23;;;;;;;28.15;17.80;;;;;;;2.47;100.00;95105.28;5115899;28;20031;-71
2023/02/24 04:19:55;;;;;;;21.48;13.43;;;;;;;2.45;100.00;95106.34;5113575;28;20388;-71
2023/02/24 04:22:23;;;;;;;20.80;13.13;;;;;;;2.62;100.00;95094.78;5097287;28;20022;-71
2023/02/24 04:24:54;;;;;;;17.77;12.23;;;;;;;2.49;100.00;95098.22;5116231;28;20023;-71
2023/02/24 04:27:21;;;;;;;26.73;13.55;;;;;;;2.39;100.00;95102.41;5114121;28;20512;-71
2023/02/24 04:29:52;;;;;;;20.17;13.15;;;;;;;2.36;100.00;95100.84;5115513;28;20026;-60
2023/02/24 04:32:22;;;;;;;17.40;12.70;;;;;;;2.29;100.00;95105.63;5112970;28;20027;-69
2023/02/24 04:34:48;;;;;;;22.33;13.15;;;;;;;2.42;100.00;95109.97;5114417;28;20043;-69
2023/02/24 04:37:13;;;;;;;24.90;13.32;;;;;;;2.41;100.00;95109.13;5118289;28;20031;-69
2023/02/24 04:39:39;;;;;;;23.70;12.77;;;;;;;2.49;100.00;95110.41;5116171;28;20393;-68
2023/02/24 04:42:05;;;;;;;22.67;13.23;;;;;;;2.53;100.00;95111.84;5118441;28;20428;-69
2023/02/24 04:44:31;;;;;;;19.40;13.48;;;;;;;2.47;100.00;95113.09;5115431;28;20462;-69
2023/02/24 04:46:58;;;;;;;16.50;13.23;;;;;;;2.37;100.00;95107.69;5114363;28;20366;-71
2023/02/24 04:49:23;;;;;;;18.98;13.00;;;;;;;2.29;100.00;95116.00;5116860;28;20397;-65
2023/02/24 04:51:50;;;;;;;17.55;12.55;;;;;;;2.25;100.00;95104.16;5109545;28;20027;-68
2023/02/24 04:54:17;;;;;;;18.02;12.68;;;;;;;2.31;100.00;95107.28;5119617;28;20320;-68
2023/02/24 04:56:46;;;;;;;25.75;14.43;;;;;;;2.34;100.00;95117.47;5113870;28;20099;-68
2023/02/24 04:59:12;;;;;;;23.85;14.07;;;;;;;2.31;100.00;95113.31;5116314;28;20024;-68
2023/02/24 05:01:41;;;;;;;18.80;12.48;;;;;;;2.19;100.00;95115.00;5116508;28;20028;-68
2023/02/24 05:04:07;;;;;;;19.75;13.40;;;;;;;2.16;100.00;95112.59;5116937;28;20031;-68
2023/02/24 05:06:33;;;;;;;17.73;12.50;;;;;;;2.09;100.00;95112.19;5115514;27;20059;-60
2023/02/24 05:09:00;;;;;;;18.48;12.75;;;;;;;2.07;100.00;95118.41;5122828;27;20395;-67
2023/02/24 05:11:33;;;;;;;21.13;12.88;;;;;;;2.05;100.00;95121.13;5117584;27;20149;-66
2023/02/24 05:13:59;;;;;;;26.75;17.02;;;;;;;2.09;100.00;95114.78;5116620;27;20596;-65
2023/02/24 05:16:27;;;;;;;31.23;18.52;;;;;;;2.10;100.00;95103.47;5122475;27;20026;-65
2023/02/24 05:19:28;;;;;;;24.15;17.70;;;;;;;2.12;100.00;95108.56;5119950;27;20020;-65
2023/02/24 05:21:40;;;;;;;37.55;27.30;;;;;;;2.01;100.00;95093.72;5112396;27;20514;-65
2023/02/24 05:24:06;;;;;;;33.33;22.38;;;;;;;1.96;100.00;95093.16;5118940;27;20531;-69
2023/02/24 05:26:36;;;;;;;31.65;20.17;;;;;;;1.92;100.00;95087.38;5114798;27;20023;-63
2023/02/24 05:29:03;;;;;;;20.38;17.15;;;;;;;1.88;100.00;95090.28;5111838;27;20742;-60
2023/02/24 05:31:29;;;;;;;23.65;18.20;;;;;;;1.86;100.00;95080.81;5118135;27;20020;-60
2023/02/24 05:34:03;;;;;;;37.35;24.15;;;;;;;1.92;100.00;95084.78;5117900;27;20019;-60
2023/02/24 05:36:39;;;;;;;34.17;22.83;;;;;;;1.87;100.00;95073.84;5121032;27;20061;-60
2023/02/24 05:39:13;;;;;;;27.38;18.85;;;;;;;1.76;100.00;95069.38;5114181;27;20026;-61
2023/02/24 05:41:40;;;;;;;31.23;17.35;;;;;;;1.72;100.00;95070.53;5118960;27;20088;-60
2023/02/24 05:44:22;;;;;;;27.73;17.08;;;;;;;1.71;100.00;95056.72;5121294;27;20046;-65
2023/02/24 05:46:48;;;;;;;36.63;20.95;;;;;;;1.75;100.00;95064.31;5121607;27;20019;-60
2023/02/24 05:49:19;;;;;;;29.65;20.08;;;;;;;1.76;100.00;95060.78;5120436;27;20194;-66
2023/02/24 05:51:53;;;;;;;41.05;25.15;;;;;;;1.76;100.00;95064.19;5119583;27;20042;-65
2023/02/24 05:54:21;;;;;;;40.60;24.75;;;;;;;1.79;100.00;95065.75;5095401;27;20395;-66
2023/02/24 05:56:47;;;;;;;31.88;25.20;;;;;;;1.77;100.00;95063.28;5118442;27;20681;-65
2023/02/24 05:59:20;;;;;;;38.35;23.60;;;;;;;1.73;100.00;95068.78;5118779;27;20027;-66
2023/02/24 06:01:46;;;;;;;27.98;21.42;;;;;;;1.71;100.00;95056.72;5116849;27;20047;-65
2023/02/24 06:04:19;;;;;;;34.85;22.90;;;;;;;1.75;100.00;95056.53;5118988;27;20055;-70
2023/02/24 06:06:51;;;;;;;31.00;22.77;;;;;;;1.76;100.00;95055.59;5120569;27;20508;-66
2023/02/24 06:09:18;;;;;;;28.10;21.85;;;;;;;1.75;100.00;95054.75;5117863;27;20503;-65
2023/02/24 06:11:44;;;;;;;25.50;19.23;;;;;;;1.79;100.00;95068.34;5119721;27;20024;-65
2023/02/24 06:14:11;;;;;;;26.50;18.00;;;;;;;1.85;100.00;95071.38;5117451;27;20374;-66
2023/02/24 06:16:38;;;;;;;28.90;19.05;;;;;;;1.91;100.00;95079.69;5116461;27;20027;-65
2023/02/24 06:19:06;;;;;;;31.00;19.98;;;;;;;1.94;100.00;95075.13;5110531;28;20059;-67
2023/02/24 06:21:34;;;;;;;33.17;18.95;;;;;;;1.95;100.00;95088.91;5111444;28;20028;-66
2023/02/24 06:24:00;;;;;;;30.17;19.15;;;;;;;1.94;100.00;95085.50;5092615;28;20015;-68
2023/02/24 06:26:32;;;;;;;29.98;17.73;;;;;;;1.95;100.00;95084.56;5111138;28;20061;-65
2023/02/24 06:28:58;;;;;;;30.02;17.88;;;;;;;1.98;100.00;95076.56;5110385;28;20080;-65
2023/02/24 06:31:26;;;;;;;37.40;21.15;;;;;;;2.03;100.00;95078.84;5110984;28;20019;-65
2023/02/24 06:33:52;;;;;;;36.03;21.17;;;;;;;2.08;100.00;95081.13;5126031;27;20023;-66
2023/02/24 06:36:18;;;;;;;41.55;22.95;;;;;;;2.11;100.00;95088.72;5080216;28;20044;-66
2023/02/24 06:38:44;;;;;;;28.35;19.92;;;;;;;2.11;100.00;95092.13;5090303;28;20077;-65
2023/02/24 06:41:10;;;;;;;71.40;40.88;;;;;;;2.19;100.00;95098.56;5089437;28;20042;-62
2023/02/24 06:43:37;;;;;;;60.35;40.65;;;;;;;2.24;100.00;95097.31;5083110;28;20024;-69
2023/02/24 06:46:04;;;;;;;27.08;18.77;;;;;;;2.38;100.00;95104.16;5088709;28;20555;-69
2023/02/24 06:48:32;;;;;;;52.45;30.55;;;;;;;2.51;100.00;95111.94;5090295;28;20031;-70
2023/02/24 06:51:02;;;;;;;46.78;27.95;;;;;;;2.53;100.00;95111.84;5090117;28;20028;-70
2023/02/24 06:53:27;;;;;;;37.10;21.58;;;;;;;2.57;100.00;95121.06;5087877;28;20036;-70
2023/02/24 06:55:53;;;;;;;33.47;20.70;;;;;;;2.68;100.00;95109.94;5088601;28;20396;-70
2023/02/24 06:58:19;;;;;;;34.38;19.02;;;;;;;2.82;100.00;95108.94;5086073;28;20475;-69
2023/02/24 07:00:57;;;;;;;38.03;22.02;;;;;;;2.92;100.00;95109.13;5082983;28;20087;-65
2023/02/24 07:03:37;;;;;;;32.47;21.27;;;;;;;2.99;100.00;95108.59;5091630;28;20163;-61
2023/02/24 07:06:19;;;;;;;37.08;21.98;;;;;;;3.06;100.00;95115.94;5090099;28;20510;-69
2023/02/24 07:08:45;;;;;;;36.83;20.35;;;;;;;3.11;100.00;95113.88;5088292;28;20031;-69
2023/02/24 07:11:12;;;;;;;31.13;19.52;;;;;;;3.15;100.00;95112.69;5087986;28;20115;-67
2023/02/24 07:13:39;;;;;;;38.83;23.60;;;;;;;3.21;100.00;95099.25;5088203;28;20146;-69
2023/02/24 07:16:06;;;;;;;38.92;23.10;;;;;;;3.29;100.00;95094.28;5071878;28;20145;-73
2023/02/24 07:18:35;;;;;;;40.83;25.77;;;;;;;3.37;100.00;95098.94;5070998;28;20027;-71
2023/02/24 07:21:10;;;;;;;46.88;28.77;;;;;;;3.42;100.00;95099.44;5077640;28;20024;-65
2023/02/24 07:23:38;;;;;;;48.17;26.60;;;;;;;3.52;100.00;95090.97;5089753;28;20032;-65
2023/02/24 07:26:17;;;;;;;39.03;25.83;;;;;;;3.58;100.00;95088.75;5089255;28;20028;-65
2023/02/24 07:28:44;;;;;;;37.40;23.67;;;;;;;3.63;100.00;95084.97;5089398;28;20011;-64
2023/02/24 07:31:13;;;;;;;34.28;19.70;;;;;;;3.69;100.00;95090.53;5089355;28;20028;-65
2023/02/24 07:33:39;;;;;;;32.75;19.35;;;;;;;3.75;100.00;95088.41;5085294;28;20039;-65
2023/02/24 07:36:09;;;;;;;51.67;21.42;;;;;;;3.76;100.00;95079.66;5103485;28;20044;-66
2023/02/24 07:38:38;;;;;;;30.05;18.80;;;;;;;3.81;100.00;95077.53;5108060;28;20277;-59
2023/02/24 07:41:05;;;;;;;29.75;19.48;;;;;;;3.84;100.00;95069.50;5107307;28;20027;-67
2023/02/24 07:43:33;;;;;;;24.48;17.98;;;;;;;3.86;100.00;95072.81;5108136;28;20028;-60
2023/02/24 07:46:08;;;;;;;34.53;19.20;;;;;;;3.92;100.00;95072.38;5108942;28;20030;-59
2023/02/24 07:48:37;;;;;;;32.58;18.55;;;;;;;3.99;100.00;95083.97;5107219;28;20027;-59
2023/02/24 07:51:10;;;;;;;43.17;29.50;;;;;;;3.98;100.00;95084.91;5109039;28;20088;-59
2023/02/24 07:53:39;;;;;;;37.50;26.63;;;;;;;4.03;100.00;95083.72;5109387;28;20406;-59
2023/02/24 07:56:16;;;;;;;38.17;19.58;;;;;;;4.03;100.00;95081.13;5108752;28;20558;-59
2023/02/24 07:58:51;;;;;;;25.60;14.65;;;;;;;4.01;100.00;95074.25;5108634;28;20649;-66
2023/02/24 08:01:23;;;;;;;24.88;13.55;;;;;;;4.04;100.00;95072.38;5097700;28;20031;-60
2023/02/24 08:04:11;;;;;;;22.90;12.38;;;;;;;4.07;100.00;95072.97;5107791;28;20032;-59
2023/02/24 08:06:42;;;;;;;31.13;14.80;;;;;;;4.11;100.00;95068.38;5107687;28;20039;-60
2023/02/24 08:09:17;;;;;;;40.42;13.13;;;;;;;4.18;100.00;95063.47;5108616;28;20035;-59
2023/02/24 08:11:44;;;;;;;21.88;12.07;;;;;;;4.13;100.00;95061.25;5108273;28;20024;-59
2023/02/24 08:14:15;;;;;;;25.30;11.88;;;;;;;4.19;100.00;95052.97;5108518;28;20023;-60
2023/02/24 08:16:40;;;;;;;17.80;11.25;;;;;;;4.23;100.00;95048.34;5107927;28;20088;-59
2023/02/24 08:19:06;;;;;;;25.50;13.05;;;;;;;4.26;100.00;95048.91;5107507;28;20443;-66
2023/02/24 08:21:37;;;;;;;27.17;13.02;;;;;;;4.34;100.00;95047.50;5108186;28;20045;-60
2023/02/24 08:24:04;;;;;;;39.13;19.70;;;;;;;4.64;100.00;95053.88;5106521;28;20038;-60
2023/02/24 08:26:30;;;;;;;26.48;12.75;;;;;;;4.94;100.00;95047.16;5106583;28;20042;-62
2023/02/24 08:28:56;;;;;;;31.60;13.35;;;;;;;5.49;100.00;95041.03;5108074;28;20102;-60
2023/02/24 08:31:22;;;;;;;41.92;24.63;;;;;;;5.83;100.00;95040.81;5108302;28;20077;-60
2023/02/24 08:33:47;;;;;;;29.13;14.63;;;;;;;6.11;99.54;95051.59;5108528;28;20104;-59
2023/02/24 08:36:15;;;;;;;27.08;12.90;;;;;;;6.19;99.04;95050.94;5090596;28;20052;-60
2023/02/24 08:38:40;;;;;;;33.63;15.82;;;;;;;6.61;97.47;95050.00;5086125;28;20028;-69
2023/02/24 08:41:12;;;;;;;25.15;11.52;;;;;;;6.83;96.08;95039.31;5088935;28;20073;-60
2023/02/24 08:43:39;;;;;;;22.02;10.50;;;;;;;7.11;94.39;95036.88;5092067;28;20035;-60
2023/02/24 08:46:04;;;;;;;23.38;10.52;;;;;;;7.20;94.19;95031.78;5091633;28;20040;-60
2023/02/24 08:48:54;;;;;;;26.80;11.43;;;;;;;7.35;94.77;95027.78;5091975;28;20028;-60
2023/02/24 08:51:27;;;;;;;25.85;12.70;;;;;;;7.58;94.51;95028.31;5092534;28;20518;-60
2023/02/24 08:53:54;;;;;;;22.15;12.50;;;;;;;7.76;93.66;95026.78;5090012;28;20044;-59
2023/02/24 08:56:26;;;;;;;25.58;13.85;;;;;;;7.87;93.77;95018.78;5091886;28;20509;-61
2023/02/24 08:59:06;;;;;;;29.02;13.18;;;;;;;8.13;92.33;95015.50;5074554;28;20054;-59
2023/02/24 09:01:37;;;;;;;22.17;14.38;;;;;;;8.26;92.96;95009.94;5092475;28;20477;-66
2023/02/24 09:04:18;;;;;;;23.00;14.38;;;;;;;8.46;91.65;95018.53;5092295;28;20027;-66
2023/02/24 09:06:56;;;;;;;29.63;14.57;;;;;;;8.66;90.75;95021.94;5090944;28;20557;-66
2023/02/24 09:09:22;;;;;;;26.52;15.27;;;;;;;8.91;90.37;95016.97;5090939;28;20035;-66
2023/02/24 09:11:55;;;;;;;25.92;15.82;;;;;;;9.16;88.23;95018.00;5092083;28;20054;-66
2023/02/24 09:14:25;;;;;;;23.05;15.57;;;;;;;9.07;87.89;95010.22;5089933;28;20012;-65
2023/02/24 09:17:09;;;;;;;24.58;15.52;;;;;;;9.30;86.42;95013.22;5088624;28;20024;-61
2023/02/24 09:22:30;;;;;;;32.33;15.85;;;;;;;9.45;82.91;95006.47;5089811;28;20032;-69
2023/02/24 09:25:17;;;;;;;25.90;15.25;;;;;;;9.32;84.11;95012.09;5091120;28;20039;-68
2023/02/24 09:27:51;;;;;;;30.23;16.50;;;;;;;9.30;84.61;95008.81;5091203;28;20620;-68
2023/02/24 09:30:37;;;;;;;27.42;16.08;;;;;;;9.54;82.97;95012.59;5072868;28;20066;-68
2023/02/24 09:33:16;;;;;;;23.60;16.70;;;;;;;9.35;85.31;95004.88;5089157;28;20446;-68
2023/02/24 09:35:46;;;;;;;27.35;15.95;;;;;;;9.64;84.77;95002.00;5100253;28;20050;-66
2023/02/24 09:38:16;;;;;;;25.67;16.38;;;;;;;9.94;84.20;95005.16;5103312;28;20024;-60
2023/02/24 09:40:47;;;;;;;24.63;16.02;;;;;;;10.03;82.70;95006.84;5089061;28;20515;-60
2023/02/24 09:43:16;;;;;;;29.52;16.88;;;;;;;10.31;81.93;95006.69;5096626;28;20482;-60
2023/02/24 09:46:14;;;;;;;25.92;16.63;;;;;;;10.66;81.48;95004.06;5099250;28;20070;-60
2023/02/24 09:49:04;;;;;;;29.77;15.13;;;;;;;10.95;76.44;94994.91;5090486;28;20016;-60
2023/02/24 09:51:41;;;;;;;29.48;13.52;;;;;;;11.13;76.52;94999.22;5091508;28;20375;-60
2023/02/24 09:54:13;;;;;;;33.03;15.15;;;;;;;11.23;75.18;94988.53;5116804;27;20039;-59
2023/02/24 09:56:46;;;;;;;24.95;15.48;;;;;;;11.34;72.38;94982.94;5088857;28;20067;-66
2023/02/24 09:59:33;;;;;;;26.40;14.50;;;;;;;11.35;72.79;94991.69;5091584;28;20464;-66
2023/02/24 10:02:43;;;;;;;21.23;13.60;;;;;;;11.77;71.28;94979.31;5079902;28;20024;-66
2023/02/24 10:05:18;;;;;;;25.58;13.75;;;;;;;12.07;71.17;94972.53;5091451;28;20489;-66
2023/02/24 10:07:45;;;;;;;27.10;13.90;;;;;;;12.41;69.53;94970.59;5091281;28;20024;-66
2023/02/24 10:10:19;;;;;;;25.40;12.85;;;;;;;12.61;67.93;94969.19;5085197;28;20493;-67
2023/02/24 10:12:57;;;;;;;25.15;13.65;;;;;;;12.77;68.36;94964.00;5082440;28;20011;-66
2023/02/24 10:18:25;;;;;;;25.05;12.75;;;;;;;13.02;66.89;94957.56;5110823;28;20084;-70
2023/02/24 10:20:56;;;;;;;20.02;11.90;;;;;;;12.93;63.62;94952.50;5089980;28;20024;-69
2023/02/24 10:23:31;;;;;;;26.25;11.98;;;;;;;12.89;65.41;94952.06;5090973;28;20016;-69
2023/02/24 10:26:43;;;;;;;18.55;11.00;;;;;;;12.77;64.66;94941.06;5083469;28;20035;-69
2023/02/24 10:29:37;;;;;;;22.88;11.25;;;;;;;13.01;64.80;94944.53;5058789;28;20517;-69
2023/02/24 10:32:33;;;;;;;17.77;10.43;;;;;;;13.39;65.99;94941.13;5094584;28;20446;-66
2023/02/24 10:35:00;;;;;;;17.92;10.40;;;;;;;13.56;66.05;94936.53;5087025;28;20040;-68
2023/02/24 10:37:27;;;;;;;21.67;10.90;;;;;;;13.69;65.99;94930.63;5088233;28;20144;-59
2023/02/24 10:40:08;;;;;;;18.70;10.27;;;;;;;13.83;64.30;94927.19;5090070;28;20032;-59
2023/02/24 10:42:36;;;;;;;22.77;11.07;;;;;;;13.90;61.59;94916.72;5090047;28;20436;-59
2023/02/24 10:45:16;;;;;;;25.52;10.75;;;;;;;14.07;60.07;94912.06;5072078;28;20063;-59
2023/02/24 10:47:44;;;;;;;19.55;11.10;;;;;;;14.39;61.75;94909.22;5088913;28;20023;-59
2023/02/24 10:50:30;;;;;;;19.02;10.65;;;;;;;14.56;60.98;94905.34;5086444;28;20016;-59
2023/02/24 10:53:25;;;;;;;22.15;10.35;;;;;;;14.66;61.04;94899.75;5089767;28;20069;-67
2023/02/24 10:56:13;;;;;;;23.88;11.15;;;;;;;14.84;59.49;94894.06;5089863;28;20091;-61
2023/02/24 11:01:39;;;;;;;21.05;9.35;;;;;;;14.98;58.10;94892.38;5104318;28;20040;-61
2023/02/24 11:04:32;;;;;;;20.13;9.70;;;;;;;15.23;56.63;94888.53;5094575;28;20028;-61
2023/02/24 11:07:10;;;;;;;22.95;10.60;;;;;;;15.62;55.09;94887.19;5088820;28;20067;-61
2023/02/24 11:09:51;;;;;;;27.38;9.35;;;;;;;15.78;54.31;94879.94;5089143;28;20059;-61
2023/02/24 11:18:09;;;;;;;23.15;8.82;;;;;;;16.33;48.41;94872.09;5089468;28;20400;-69
2023/02/24 11:20:43;;;;;;;34.03;9.32;;;;;;;16.37;49.69;94865.38;5087706;28;20024;-69
2023/02/24 11:23:14;;;;;;;22.75;8.85;;;;;;;16.64;48.82;94864.63;5088874;28;20047;-69
2023/02/24 11:25:47;;;;;;;20.45;8.95;;;;;;;16.91;48.17;94860.22;5088827;28;20035;-69
2023/02/24 11:28:48;;;;;;;22.48;8.90;;;;;;;17.66;44.42;94855.75;5084669;28;20035;-69
2023/02/24 11:31:50;;;;;;;18.88;8.07;;;;;;;16.97;44.78;94848.75;5081835;28;20397;-61
2023/02/24 11:34:15;;;;;;;24.73;8.55;;;;;;;17.24;45.49;94842.69;5089291;28;20028;-68
2023/02/24 11:36:53;;;;;;;20.80;8.88;;;;;;;17.51;45.99;94835.53;5109284;28;20421;-67
2023/02/24 11:39:21;;;;;;;19.00;8.10;;;;;;;17.49;42.87;94832.25;5101313;28;20579;-67
2023/02/24 11:41:51;;;;;;;25.77;8.07;;;;;;;16.42;44.20;94822.28;5109397;28;20032;-68
2023/02/24 11:44:33;;;;;;;21.75;7.93;;;;;;;16.60;45.06;94822.53;5077194;28;20032;-70
2023/02/24 11:47:06;;;;;;;16.45;7.13;;;;;;;16.57;43.95;94808.81;5085709;28;20807;-67
2023/02/24 11:49:40;;;;;;;25.73;7.97;;;;;;;16.83;43.76;94802.75;5107043;28;20094;-65
2023/02/24 11:52:12;;;;;;;22.10;7.30;;;;;;;17.27;42.89;94803.22;5109019;28;20095;-61
2023/02/24 11:54:44;;;;;;;18.17;7.18;;;;;;;17.80;41.98;94787.34;5108935;28;20019;-60
2023/02/24 11:57:16;;;;;;;20.92;6.88;;;;;;;18.11;39.29;94788.50;5103675;28;20032;-60
2023/02/24 12:00:13;;;;;;;23.95;6.90;;;;;;;18.25;37.80;94778.59;5109625;28;20026;-60
2023/02/24 12:02:49;;;;;;;25.50;7.50;;;;;;;18.37;39.47;94770.75;5110572;28;20588;-60
2023/02/24 12:05:35;;;;;;;24.27;7.65;;;;;;;17.95;40.32;94766.59;5085675;28;20023;-61
2023/02/24 12:08:06;;;;;;;17.27;6.65;;;;;;;18.08;40.67;94767.63;5091007;28;20038;-60